Time;durP1;ratioP1;P1;durP2;ratioP2;P2;SDS_P1;SDS_P2;PMS_P1;PMS_P2;Temp;Humidity;BMP_temperature;BMP_pressure;BME280_temperature;BME280_humidity;BME280_pressure;Samples;Min_cycle;Max_cycle;Signal;HPM_P1;HPM_P2
2023/10/14 00:02:21;;;;;;;9.15;4.97;;;;;;;20.94;78.89;99277.28;5077828;28;20487;-82
2023/10/14 00:04:55;;;;;;;12.40;5.03;;;;;;;20.95;79.40;99285.19;5066306;28;20049;-82
2023/10/14 00:07:26;;;;;;;11.00;4.78;;;;;;;21.00;79.61;99282.84;5052993;28;20049;-82
2023/10/14 00:10:03;;;;;;;7.75;5.15;;;;;;;21.01;80.15;99292.59;5035110;28;20045;-84
2023/10/14 00:23:29;;;;;;;10.60;5.55;;;;;;;20.51;80.69;99201.19;6058550;22;4268780;-82
2023/10/14 00:25:59;;;;;;;11.85;5.57;;;;;;;20.79;81.42;99260.09;6220031;23;20021;-81
2023/10/14 00:28:28;;;;;;;10.98;5.30;;;;;;;20.80;81.57;99248.31;6223367;23;20016;-83
2023/10/14 00:30:57;;;;;;;9.65;5.10;;;;;;;20.74;81.58;99246.31;6219280;23;20024;-81
2023/10/14 00:33:27;;;;;;;10.07;5.17;;;;;;;20.78;81.07;99258.44;6195915;23;20024;-82
2023/10/14 00:36:10;;;;;;;11.23;5.78;;;;;;;20.79;79.13;99244.78;6225264;23;20005;-83
2023/10/14 00:52:55;;;;;;;14.10;5.03;;;;;;;21.47;73.45;99276.88;6166896;21;3002299;-82
2023/10/14 00:55:27;;;;;;;12.23;4.95;;;;;;;21.50;72.11;99270.31;6262544;23;20027;-85
2023/10/14 00:58:03;;;;;;;13.85;4.97;;;;;;;21.50;72.04;99259.53;6254834;23;20451;-83
2023/10/14 01:00:58;;;;;;;11.55;5.35;;;;;;;21.56;71.97;99267.78;6238326;23;20001;-84
2023/10/14 01:03:37;;;;;;;17.13;5.68;;;;;;;21.46;71.30;99233.94;6248161;23;20015;-83
2023/10/14 01:06:21;;;;;;;16.88;6.25;;;;;;;21.56;71.78;99261.56;6249946;23;20024;-83
2023/10/14 01:09:20;;;;;;;13.13;5.63;;;;;;;21.52;72.56;99257.50;6250887;23;20023;-82
2023/10/14 01:11:52;;;;;;;16.30;5.22;;;;;;;21.44;73.03;99255.66;6248371;23;20067;-82
2023/10/14 01:14:24;;;;;;;10.25;4.75;;;;;;;21.34;73.36;99238.81;6248390;23;20068;-83
2023/10/14 01:16:57;;;;;;;12.05;5.35;;;;;;;21.43;73.73;99253.13;6246501;23;20020;-82
2023/10/14 01:19:39;;;;;;;11.32;5.45;;;;;;;21.38;74.50;99256.34;6240250;23;20024;-83
2023/10/14 01:22:26;;;;;;;11.23;5.80;;;;;;;21.38;75.06;99244.72;6240480;23;20004;-84
2023/10/14 01:24:57;;;;;;;12.32;5.18;;;;;;;21.32;75.06;99236.31;6239119;23;20044;-83
2023/10/14 01:27:34;;;;;;;12.80;5.68;;;;;;;21.33;74.74;99224.53;6238392;23;20016;-84
2023/10/14 01:30:08;;;;;;;10.40;5.65;;;;;;;21.31;73.94;99207.69;6239692;23;20027;-83
2023/10/14 01:32:48;;;;;;;16.25;5.88;;;;;;;21.47;74.16;99235.63;6238454;23;20059;-83
2023/10/14 01:35:40;;;;;;;10.20;5.20;;;;;;;21.33;73.71;99200.28;6236119;23;20099;-83
2023/10/14 01:38:11;;;;;;;14.32;5.65;;;;;;;21.50;73.00;99219.13;6230360;23;20027;-83
2023/10/14 01:40:44;;;;;;;12.30;5.70;;;;;;;21.53;73.18;99232.25;6232607;23;20016;-83
2023/10/14 01:43:15;;;;;;;18.40;5.68;;;;;;;21.36;72.91;99212.56;6235210;23;20082;-83
2023/10/14 01:45:59;;;;;;;15.10;4.93;;;;;;;21.16;73.18;99171.66;6235579;23;20162;-83
2023/10/14 01:51:27;;;;;;;11.13;5.43;;;;;;;21.39;73.53;99231.09;6237205;23;20021;-81
2023/10/14 01:53:57;;;;;;;14.95;5.20;;;;;;;21.10;74.53;99177.69;6205240;23;20032;-84
2023/10/14 01:56:27;;;;;;;10.68;5.28;;;;;;;21.35;74.87;99238.66;6200587;23;20021;-81
2023/10/14 01:58:57;;;;;;;12.75;5.22;;;;;;;21.27;75.08;99225.19;6200613;23;20048;-83
2023/10/14 02:01:41;;;;;;;11.52;5.72;;;;;;;21.31;75.48;99217.63;6223144;23;20032;-83
2023/10/14 02:04:14;;;;;;;16.15;6.05;;;;;;;21.00;75.90;99168.97;6223354;23;20533;-83
2023/10/14 02:07:02;;;;;;;9.70;5.30;;;;;;;21.27;76.71;99217.09;6225460;23;20447;-83
2023/10/14 02:09:48;;;;;;;12.65;5.72;;;;;;;21.22;77.71;99208.72;6229526;23;20021;-83
2023/10/14 02:12:18;;;;;;;12.85;6.45;;;;;;;21.24;78.19;99220.16;6231025;23;20044;-84
2023/10/14 02:15:00;;;;;;;14.27;5.70;;;;;;;21.21;79.57;99220.50;6243108;23;20062;-82
2023/10/14 02:17:32;;;;;;;13.32;6.20;;;;;;;21.13;80.06;99203.44;6241129;23;20020;-81
2023/10/14 02:20:19;;;;;;;12.57;6.47;;;;;;;21.10;80.31;99193.00;6241754;23;20023;-82
2023/10/14 02:22:57;;;;;;;15.25;6.60;;;;;;;21.09;80.44;99183.28;6207974;23;20008;-83
2023/10/14 02:25:31;;;;;;;13.55;6.15;;;;;;;21.15;80.82;99179.91;6241839;23;20036;-82
2023/10/14 02:28:06;;;;;;;13.27;6.78;;;;;;;21.23;80.30;99205.00;6241242;23;20032;-83
2023/10/14 02:30:36;;;;;;;11.32;6.50;;;;;;;21.27;80.48;99202.81;6235313;23;20017;-83
2023/10/14 02:33:07;;;;;;;13.25;6.47;;;;;;;21.26;80.49;99209.19;6234891;23;20472;-83
2023/10/14 02:35:37;;;;;;;13.32;6.25;;;;;;;21.21;80.56;99198.97;6237420;23;20024;-83
2023/10/14 02:41:05;;;;;;;10.27;5.97;;;;;;;21.06;81.98;99175.53;6236225;23;20036;-84
2023/10/14 02:43:51;;;;;;;15.25;6.28;;;;;;;21.07;80.63;99175.38;6234089;23;20085;-83
2023/10/14 02:46:22;;;;;;;10.05;5.75;;;;;;;21.09;80.39;99194.88;6235263;23;20020;-82
2023/10/14 02:49:02;;;;;;;13.93;5.95;;;;;;;21.16;79.69;99185.13;6234473;23;20075;-84
2023/10/14 02:51:36;;;;;;;13.10;6.03;;;;;;;21.21;79.06;99196.25;6234167;23;20025;-84
2023/10/14 02:54:15;;;;;;;11.27;5.80;;;;;;;21.19;77.69;99186.63;6236534;23;20103;-84
2023/10/14 02:57:12;;;;;;;13.80;5.80;;;;;;;21.21;76.19;99188.19;6217477;23;20028;-81
2023/10/14 03:02:48;;;;;;;11.73;5.45;;;;;;;21.28;73.62;99194.56;6235791;23;20027;-83
2023/10/14 03:05:51;;;;;;;15.48;4.70;;;;;;;21.20;73.31;99177.59;6229147;23;20013;-83
2023/10/14 03:08:28;;;;;;;9.98;4.80;;;;;;;21.28;72.38;99197.25;6237421;23;20131;-83
2023/10/14 03:14:24;;;;;;;13.00;4.75;;;;;;;21.30;71.84;99195.22;6235677;23;20020;-83
2023/10/14 03:20:09;;;;;;;10.40;4.75;;;;;;;21.09;72.38;99176.06;6238977;23;20009;-83
2023/10/14 03:25:36;;;;;;;15.23;4.10;;;;;;;21.18;73.14;99207.31;6238737;23;20020;-82
2023/10/14 03:36:43;;;;;;;10.63;3.92;;;;;;;20.73;75.32;99182.75;6225967;23;20028;-84
2023/10/14 03:42:32;;;;;;;8.57;3.47;;;;;;;20.76;75.50;99204.78;6231718;23;20024;-83
2023/10/14 03:45:06;;;;;;;11.45;3.63;;;;;;;20.75;75.61;99221.09;6233296;23;20020;-82
2023/10/14 03:47:40;;;;;;;10.55;3.08;;;;;;;20.72;76.10;99216.03;6230185;23;20051;-83
2023/10/14 03:50:15;;;;;;;9.50;3.40;;;;;;;20.69;76.53;99209.13;6224332;23;20017;-83
2023/10/14 03:55:27;;;;;;;11.30;4.03;;;;;;;20.62;77.70;99213.47;6231258;23;20376;-82
2023/10/14 03:58:12;;;;;;;12.10;3.65;;;;;;;20.41;76.99;99200.50;6215508;23;20510;-83
2023/10/14 04:00:43;;;;;;;8.63;3.50;;;;;;;20.64;77.11;99219.53;6220162;23;20023;-82
2023/10/14 04:03:39;;;;;;;7.70;2.15;;;;;;;20.62;75.87;99221.53;6220005;23;20017;-83
2023/10/14 04:06:26;;;;;;;6.63;2.08;;;;;;;20.59;75.83;99222.75;6215171;23;20024;-83
2023/10/14 04:08:56;;;;;;;4.53;1.60;;;;;;;20.55;76.11;99216.00;6221791;23;20130;-84
2023/10/14 04:11:38;;;;;;;9.27;1.75;;;;;;;20.54;76.76;99229.59;6225714;23;20095;-83
2023/10/14 04:14:13;;;;;;;4.43;1.60;;;;;;;20.39;77.09;99212.41;6223834;23;20020;-84
2023/10/14 04:17:09;;;;;;;7.57;1.88;;;;;;;20.41;78.27;99213.94;6198024;23;20028;-83
2023/10/14 04:19:58;;;;;;;5.60;1.50;;;;;;;20.39;78.87;99226.69;6222712;23;20052;-84
2023/10/14 04:22:38;;;;;;;4.82;1.23;;;;;;;20.32;79.42;99215.72;6223672;23;20076;-82
2023/10/14 04:31:34;;;;;;;6.45;1.15;;;;;;;20.16;82.26;99226.41;6230421;23;20025;-82
2023/10/14 04:34:15;;;;;;;3.38;0.85;;;;;;;20.12;83.02;99229.59;6231988;23;20025;-84
2023/10/14 04:37:07;;;;;;;8.02;0.68;;;;;;;20.16;83.72;99230.94;6227794;23;20029;-84
2023/10/14 04:43:00;;;;;;;5.32;1.02;;;;;;;20.09;85.13;99244.19;6234270;23;20020;-83
2023/10/14 04:45:45;;;;;;;3.53;0.82;;;;;;;20.06;85.27;99230.22;6237133;23;20048;-82
2023/10/14 04:48:16;;;;;;;3.53;0.82;;;;;;;20.08;85.84;99247.03;6210466;23;20020;-82
2023/10/14 04:50:56;;;;;;;4.30;0.85;;;;;;;20.06;86.18;99233.75;6241660;23;20028;-83
2023/10/14 04:53:31;;;;;;;6.45;1.20;;;;;;;19.89;87.24;99219.38;6232673;23;20020;-82
2023/10/14 04:56:08;;;;;;;3.35;0.85;;;;;;;20.05;87.48;99239.28;6221833;23;20166;-82
2023/10/14 04:58:40;;;;;;;6.65;0.93;;;;;;;20.07;87.88;99256.94;6221405;23;20024;-83
2023/10/14 05:01:19;;;;;;;5.30;0.80;;;;;;;20.09;88.55;99260.31;6222662;23;20035;-83
2023/10/14 05:03:58;;;;;;;2.72;0.70;;;;;;;20.05;88.93;99261.63;6220842;23;20012;-84
2023/10/14 05:06:43;;;;;;;4.65;0.85;;;;;;;19.98;90.01;99265.97;6221433;23;20025;-83
2023/10/14 05:09:27;;;;;;;5.30;0.70;;;;;;;19.89;90.79;99273.13;6196253;23;20017;-83
2023/10/14 05:12:40;;;;;;;1.75;0.50;;;;;;;19.95;92.94;99287.78;6224147;23;20059;-83
2023/10/14 05:15:27;;;;;;;2.47;0.50;;;;;;;19.93;94.64;99304.06;6224044;23;20032;-82
2023/10/14 05:18:00;;;;;;;3.08;0.60;;;;;;;19.78;96.39;99304.78;6225959;23;20465;-85
2023/10/14 05:20:54;;;;;;;3.45;0.68;;;;;;;19.58;97.81;99296.06;6230196;23;20017;-83
2023/10/14 05:23:32;;;;;;;5.95;0.82;;;;;;;19.67;99.84;99351.53;6240673;23;20032;-83
2023/10/14 05:26:06;;;;;;;10.15;1.17;;;;;;;19.34;100.00;99387.97;6239573;23;20090;-82
2023/10/14 05:28:55;;;;;;;3.83;0.55;;;;;;;18.03;100.00;99418.53;6228293;23;20582;-84
2023/10/14 05:34:10;;;;;;;0.38;0.10;;;;;;;16.23;100.00;99445.28;6228220;23;20051;-84
2023/10/14 05:36:53;;;;;;;0.08;0.08;;;;;;;15.73;100.00;99434.41;6226224;23;20027;-86
2023/10/14 05:39:37;;;;;;;1.65;0.10;;;;;;;15.58;100.00;99449.03;6228135;23;20027;-84
2023/10/14 05:45:03;;;;;;;1.33;0.10;;;;;;;15.63;100.00;99473.50;6227280;23;20074;-84
2023/10/14 05:47:36;;;;;;;1.30;0.13;;;;;;;15.68;100.00;99495.31;6226256;23;20027;-86
2023/10/14 05:58:53;;;;;;;0.30;0.10;;;;;;;15.58;100.00;99521.09;6236043;23;20020;-83
2023/10/14 06:01:28;;;;;;;1.60;0.10;;;;;;;15.64;100.00;99543.72;6228378;23;20036;-84
2023/10/14 06:04:15;;;;;;;0.45;0.10;;;;;;;15.50;100.00;99530.63;6228220;23;20017;-82
2023/10/14 06:06:46;;;;;;;0.10;0.10;;;;;;;15.69;100.00;99577.09;6227821;23;20256;-86
2023/10/14 06:12:12;;;;;;;0.52;0.10;;;;;;;15.69;100.00;99589.59;6231642;23;20103;-81
2023/10/14 06:14:42;;;;;;;0.40;0.10;;;;;;;15.70;100.00;99613.50;6226958;23;20016;-82
2023/10/14 06:20:16;;;;;;;0.93;0.15;;;;;;;15.54;100.00;99606.81;6238403;23;20032;-81
2023/10/14 06:28:22;;;;;;;0.10;0.10;;;;;;;15.59;100.00;99637.50;6227672;23;20028;-84
2023/10/14 06:30:53;;;;;;;0.20;0.10;;;;;;;15.71;100.00;99657.03;6233602;23;20016;-83
2023/10/14 06:33:37;;;;;;;0.85;0.10;;;;;;;15.77;100.00;99665.41;6220787;23;20020;-82
2023/10/14 06:36:13;;;;;;;1.50;0.50;;;;;;;15.82;100.00;99669.53;6218551;23;20009;-83
2023/10/14 06:38:44;;;;;;;2.30;0.30;;;;;;;15.81;100.00;99674.00;6240005;23;20016;-83
2023/10/14 06:41:16;;;;;;;0.13;0.13;;;;;;;15.81;100.00;99673.16;6241085;23;20012;-82
2023/10/14 06:43:55;;;;;;;0.20;0.20;;;;;;;15.83;100.00;99684.56;6240699;23;20116;-83
2023/10/14 06:46:33;;;;;;;0.30;0.10;;;;;;;15.80;100.00;99680.31;6242428;23;20035;-83
2023/10/14 06:49:13;;;;;;;0.35;0.10;;;;;;;15.89;100.00;99697.44;6242001;23;20037;-84
2023/10/14 06:51:59;;;;;;;0.20;0.15;;;;;;;15.86;100.00;99706.53;6241803;23;20020;-82
2023/10/14 06:54:41;;;;;;;0.10;0.10;;;;;;;15.87;100.00;99721.59;6217728;23;20027;-83
2023/10/14 06:57:11;;;;;;;0.10;0.10;;;;;;;15.71;100.00;99705.94;6213512;23;20092;-83
2023/10/14 06:59:40;;;;;;;2.40;0.65;;;;;;;15.79;100.00;99729.34;6239211;23;20076;-83
2023/10/14 07:02:12;;;;;;;0.52;0.10;;;;;;;15.78;100.00;99743.66;6240460;23;20020;-82
2023/10/14 07:04:55;;;;;;;0.50;0.10;;;;;;;15.85;100.00;99758.25;6239655;23;20069;-81
2023/10/14 07:07:51;;;;;;;0.22;0.10;;;;;;;15.85;100.00;99773.41;6241682;23;20036;-84
2023/10/14 07:10:27;;;;;;;0.30;0.20;;;;;;;15.81;100.00;99786.13;6215244;23;20004;-82
2023/10/14 07:13:00;;;;;;;0.68;0.10;;;;;;;15.81;100.00;99793.31;6240844;23;20059;-82
2023/10/14 07:15:32;;;;;;;0.47;0.17;;;;;;;15.58;100.00;99771.94;6239334;23;20005;-82
2023/10/14 07:18:04;;;;;;;1.13;0.20;;;;;;;15.69;100.00;99814.66;6240708;23;20012;-82
2023/10/14 07:23:28;;;;;;;0.98;0.40;;;;;;;15.51;100.00;99839.19;6240095;23;20084;-82
2023/10/14 07:25:58;;;;;;;0.28;0.20;;;;;;;15.50;100.00;99865.03;6240067;23;20039;-81
2023/10/14 07:28:46;;;;;;;3.45;0.40;;;;;;;15.48;100.00;99872.28;6195697;23;20035;-83
2023/10/14 07:31:17;;;;;;;0.77;0.32;;;;;;;15.29;100.00;99848.81;6239337;23;20025;-83
2023/10/14 07:33:59;;;;;;;4.13;0.52;;;;;;;15.24;100.00;99850.13;6240019;23;20012;-83
2023/10/14 07:36:31;;;;;;;2.63;0.88;;;;;;;15.49;100.00;99882.00;6239775;23;20017;-83
2023/10/14 07:39:27;;;;;;;5.18;1.15;;;;;;;15.60;100.00;99889.22;6239737;23;20032;-82
2023/10/14 07:41:57;;;;;;;3.95;0.95;;;;;;;15.75;100.00;99880.03;6238977;23;20025;-83
2023/10/14 07:44:38;;;;;;;4.65;1.00;;;;;;;15.69;100.00;99870.69;6232583;23;20032;-83
2023/10/14 07:47:21;;;;;;;4.85;1.27;;;;;;;15.87;100.00;99888.94;6235570;23;20024;-85
2023/10/14 07:49:59;;;;;;;6.22;1.25;;;;;;;15.90;100.00;99886.88;6232597;23;20031;-83
2023/10/14 07:55:22;;;;;;;5.15;1.35;;;;;;;15.57;100.00;99878.81;6224567;23;20028;-81
2023/10/14 07:57:59;;;;;;;4.82;1.42;;;;;;;15.50;100.00;99882.84;6227214;23;20012;-83
2023/10/14 08:00:37;;;;;;;5.53;1.20;;;;;;;15.43;99.50;99861.09;6226288;23;20008;-82
2023/10/14 08:03:15;;;;;;;7.00;1.50;;;;;;;15.79;94.41;99889.53;6235100;23;20081;-84
2023/10/14 08:05:49;;;;;;;7.00;1.65;;;;;;;15.86;92.32;99900.59;6235327;23;20015;-80
2023/10/14 08:08:24;;;;;;;8.13;1.65;;;;;;;15.91;90.94;99877.03;6236664;23;20005;-80
2023/10/14 08:11:05;;;;;;;7.55;1.20;;;;;;;16.08;83.85;99900.63;6235807;23;20017;-83
2023/10/14 08:13:44;;;;;;;;;;;;;;;15.83;86.07;99895.50;6228064;23;20100;-82
2023/10/14 08:16:15;;;;;;;5.75;1.73;;;;;;;15.72;89.17;99874.97;6227890;23;19915;-82
2023/10/14 08:18:46;;;;;;;7.00;1.60;;;;;;;15.62;87.84;99861.44;6231840;23;20004;-85
2023/10/14 08:21:16;;;;;;;8.50;1.70;;;;;;;15.83;88.22;99895.50;6232559;23;20012;-82
2023/10/14 08:23:45;;;;;;;7.22;1.20;;;;;;;15.82;89.11;99918.66;6227972;23;20026;-83
2023/10/14 08:26:16;;;;;;;8.43;2.00;;;;;;;15.71;90.11;99924.81;6226415;23;20079;-85
2023/10/14 08:28:45;;;;;;;8.20;2.20;;;;;;;15.40;92.58;99904.91;6225969;23;20016;-83
2023/10/14 08:31:13;;;;;;;6.05;1.73;;;;;;;15.55;95.68;99921.59;6225179;23;20025;-82
2023/10/14 08:33:42;;;;;;;7.20;1.67;;;;;;;15.55;96.75;99934.06;6227967;23;20040;-78
2023/10/14 08:36:15;;;;;;;10.50;1.92;;;;;;;15.38;94.02;99925.50;6230548;23;20020;-82
2023/10/14 08:38:47;;;;;;;9.80;2.00;;;;;;;15.42;96.89;99953.63;6238507;23;20035;-79
2023/10/14 08:41:22;;;;;;;5.57;1.73;;;;;;;15.40;97.16;99949.41;6233819;23;20070;-78
2023/10/14 08:43:56;;;;;;;8.40;1.85;;;;;;;14.95;96.62;99903.78;6206489;23;20043;-82
2023/10/14 08:49:12;;;;;;;8.18;2.10;;;;;;;15.31;95.50;99952.72;6223365;23;20044;-84
2023/10/14 08:55:20;;;;;;;8.05;1.90;;;;;;;15.62;97.38;99962.00;5110301;28;20093;-85
2023/10/14 08:57:51;;;;;;;5.82;1.85;;;;;;;15.72;92.35;99969.25;5126241;28;20050;-85
2023/10/14 09:12:34;;;;;;;6.55;2.17;;;;;;;15.63;85.67;99996.59;5103753;28;20041;-83
2023/10/14 09:15:06;;;;;;;7.03;2.10;;;;;;;15.74;84.94;100006.50;5104833;28;20074;-86
2023/10/14 09:20:41;;;;;;;10.13;2.60;;;;;;;15.44;82.20;100007.75;5112681;28;20115;-82
2023/10/14 09:23:19;;;;;;;8.38;2.28;;;;;;;15.46;78.67;100007.63;5096146;28;20032;-82
2023/10/14 09:25:55;;;;;;;6.70;2.05;;;;;;;15.50;78.95;100001.13;5094155;28;20040;-82
2023/10/14 09:31:40;;;;;;;8.40;2.13;;;;;;;15.47;80.26;99987.13;5038757;27;1800524;-81
2023/10/14 09:45:46;;;;;;;8.50;1.92;;;;;;;15.74;75.20;100020.66;5037031;28;20399;-82
2023/10/14 09:51:48;;;;;;;10.05;1.90;;;;;;;15.81;67.70;100028.25;5037724;28;20463;-83
2023/10/14 10:08:08;;;;;;;8.57;1.67;;;;;;;15.94;66.93;100010.34;6259893;21;3422072;-83
2023/10/14 10:16:37;;;;;;;7.85;1.80;;;;;;;16.51;66.58;100047.81;6393570;22;20018;-83
2023/10/14 10:22:17;;;;;;;8.48;1.48;;;;;;;16.61;65.53;100054.16;6389685;22;20014;-83
2023/10/14 10:25:05;;;;;;;6.50;1.52;;;;;;;16.52;62.30;100059.34;6366541;22;20022;-82
2023/10/14 10:27:56;;;;;;;8.52;2.17;;;;;;;16.48;61.40;100053.38;6394345;22;20026;-83
2023/10/14 10:30:50;;;;;;;9.55;1.73;;;;;;;16.42;62.04;100046.69;6368583;22;20025;-83
2023/10/14 10:39:50;;;;;;;8.43;1.52;;;;;;;16.28;63.84;100041.53;6364958;22;20026;-83
2023/10/14 10:42:25;;;;;;;7.55;2.00;;;;;;;16.34;64.29;100041.09;6367405;22;20325;-85
2023/10/14 10:45:10;;;;;;;8.35;1.60;;;;;;;16.31;62.56;100049.31;6365809;22;20025;-84
2023/10/14 10:50:39;;;;;;;;;;;;;;;16.52;61.23;100051.34;6359283;22;20026;-83
2023/10/14 10:56:13;;;;;;;7.35;1.70;;;;;;;16.65;61.58;100038.75;6362770;22;19914;-85
2023/10/14 11:02:09;;;;;;;7.60;1.73;;;;;;;16.42;59.73;100053.84;6365309;22;20089;-83
2023/10/14 11:04:54;;;;;;;7.30;1.50;;;;;;;16.43;56.88;100036.84;6368679;22;20022;-83
2023/10/14 11:10:16;;;;;;;7.95;1.70;;;;;;;16.84;58.01;100055.06;6364279;22;20047;-84
2023/10/14 11:15:33;;;;;;;6.40;1.50;;;;;;;16.92;55.22;100060.66;6358473;22;20406;-81
2023/10/14 11:18:09;;;;;;;4.60;1.38;;;;;;;16.94;54.20;100060.53;6359793;22;20026;-83
2023/10/14 11:21:04;;;;;;;7.05;1.38;;;;;;;16.90;53.40;100054.56;6361236;22;20018;-84
2023/10/14 11:23:43;;;;;;;5.10;1.00;;;;;;;16.86;52.36;100037.06;6363599;22;20015;-83
2023/10/14 11:26:15;;;;;;;4.28;1.00;;;;;;;16.70;52.14;100013.34;6362929;22;20022;-81
2023/10/14 11:31:32;;;;;;;5.75;1.10;;;;;;;16.91;51.07;100056.28;6366339;22;20006;-81
2023/10/14 11:34:06;;;;;;;5.97;0.82;;;;;;;16.68;51.54;100062.59;6371209;22;20026;-79
2023/10/14 11:36:45;;;;;;;2.92;1.10;;;;;;;16.51;49.92;100057.66;6370233;22;20018;-81
2023/10/14 11:39:22;;;;;;;4.40;1.15;;;;;;;16.42;50.89;100038.66;6370683;22;20026;-82
2023/10/14 11:44:36;;;;;;;5.70;1.10;;;;;;;16.44;47.84;100043.91;6341676;22;20036;-83
2023/10/14 11:47:17;;;;;;;4.38;1.10;;;;;;;16.36;47.73;100047.16;6361891;22;20019;-85
2023/10/14 11:49:50;;;;;;;2.83;0.75;;;;;;;16.47;49.21;100057.88;6344264;22;20028;-81
2023/10/14 11:52:23;;;;;;;5.15;1.40;;;;;;;16.47;48.31;100044.53;6398321;22;20094;-83
2023/10/14 11:55:00;;;;;;;3.17;1.10;;;;;;;16.57;49.75;100057.16;6369865;22;20018;-83
2023/10/14 11:57:34;;;;;;;7.10;1.40;;;;;;;16.53;50.36;100050.38;6365267;22;20015;-84
2023/10/14 12:00:10;;;;;;;6.28;1.30;;;;;;;16.48;51.07;100053.38;6361698;22;20010;-82
2023/10/14 12:02:43;;;;;;;5.55;1.02;;;;;;;16.39;51.74;100038.88;6361476;22;20041;-84
2023/10/14 12:05:19;;;;;;;5.25;1.25;;;;;;;16.51;52.01;100057.66;6360698;22;20018;-83
2023/10/14 12:07:56;;;;;;;5.82;1.55;;;;;;;16.49;50.44;100045.25;6358689;22;20018;-82
2023/10/14 12:10:29;;;;;;;6.45;1.48;;;;;;;16.61;51.02;100064.84;6395415;22;20007;-80
2023/10/14 12:13:03;;;;;;;4.47;1.13;;;;;;;16.62;50.91;100071.03;6368422;22;20038;-80
2023/10/14 12:15:40;;;;;;;5.45;1.20;;;;;;;16.61;51.13;100062.16;6394622;22;20022;-83
2023/10/14 12:18:17;;;;;;;4.22;1.40;;;;;;;16.66;52.15;100061.84;6358054;22;20015;-83
2023/10/14 12:20:54;;;;;;;4.30;1.02;;;;;;;16.93;52.64;100070.38;6358033;22;20014;-83
2023/10/14 12:23:29;;;;;;;9.45;1.75;;;;;;;17.13;53.83;100069.69;6357965;22;20417;-83
2023/10/14 12:26:13;;;;;;;3.80;0.88;;;;;;;17.07;51.25;100070.16;6334054;22;20019;-81
2023/10/14 12:29:12;;;;;;;5.55;1.10;;;;;;;16.83;49.04;100069.41;6363889;22;20022;-82
2023/10/14 12:31:45;;;;;;;4.60;1.20;;;;;;;16.68;49.25;100081.31;6367931;22;20042;-81
2023/10/14 12:37:18;;;;;;;4.57;1.15;;;;;;;16.45;49.60;100091.03;6369822;22;20018;-79
2023/10/14 12:45:25;;;;;;;4.63;1.08;;;;;;;16.37;49.14;100085.44;6363643;22;20029;-84
2023/10/14 12:48:11;;;;;;;4.25;1.10;;;;;;;16.24;50.14;100068.59;6386592;22;20030;-83
2023/10/14 12:50:46;;;;;;;5.80;1.38;;;;;;;16.34;50.37;100088.34;6358339;22;20484;-82
2023/10/14 12:53:18;;;;;;;6.32;1.38;;;;;;;16.06;50.20;100082.38;6358516;22;20026;-83
2023/10/14 12:55:59;;;;;;;5.00;1.00;;;;;;;15.97;51.37;100098.22;6385733;22;20014;-82
2023/10/14 13:01:33;;;;;;;5.80;1.30;;;;;;;15.68;52.93;100108.38;6381040;22;20028;-83
2023/10/14 13:07:08;;;;;;;6.18;1.50;;;;;;;15.69;52.51;100116.28;6352948;22;20030;-81
2023/10/14 13:09:45;;;;;;;6.15;1.63;;;;;;;15.86;52.06;100116.88;6354143;22;20015;-82
2023/10/14 13:29:52;;;;;;;4.00;1.48;;;;;;;15.40;50.25;100109.50;5178133;27;20046;-82
2023/10/14 13:32:33;;;;;;;;;;;;;;;15.69;51.22;100134.97;5151560;27;20054;-82
2023/10/14 13:35:24;;;;;;;5.07;0.77;;;;;;;15.79;48.34;100135.13;5171251;27;19950;-83
2023/10/14 13:52:56;;;;;;;4.95;1.30;;;;;;;16.12;43.50;100127.34;5159574;27;20078;-83
2023/10/14 13:55:41;;;;;;;5.25;1.45;;;;;;;16.05;44.73;100143.94;5148883;27;20133;-81
2023/10/14 14:02:20;;;;;;;4.95;1.20;;;;;;;16.06;47.34;100159.81;5175505;27;20049;-83
2023/10/14 14:15:51;;;;;;;2.97;1.05;;;;;;;15.90;47.78;100163.75;5015138;27;1282166;-83
2023/10/14 14:18:29;;;;;;;9.65;1.58;;;;;;;15.84;48.15;100154.38;5035550;28;20042;-82
2023/10/14 14:21:12;;;;;;;7.87;1.77;;;;;;;15.94;47.09;100173.22;5039177;28;20041;-83
2023/10/14 14:23:52;;;;;;;5.85;1.70;;;;;;;15.86;46.52;100181.81;5057179;28;20049;-84
2023/10/14 14:26:50;;;;;;;6.18;1.98;;;;;;;15.74;44.89;100190.72;5024548;28;20140;-82
2023/10/14 14:29:23;;;;;;;6.65;2.15;;;;;;;15.57;43.84;100165.22;5042811;28;20073;-83
2023/10/14 14:32:15;;;;;;;9.00;2.30;;;;;;;15.43;43.89;100160.78;5056575;28;20046;-82
2023/10/14 14:40:55;;;;;;;5.72;1.13;;;;;;;15.45;45.07;100206.06;5054775;28;20045;-83
2023/10/14 14:46:42;;;;;;;5.20;1.30;;;;;;;15.24;46.35;100218.25;5041103;28;20109;-81
2023/10/14 14:52:30;;;;;;;7.70;1.05;;;;;;;14.95;46.67;100218.38;5048124;28;20030;-81
2023/10/14 14:57:57;;;;;;;5.63;0.98;;;;;;;14.80;47.70;100211.44;5056335;28;20051;-82
2023/10/14 15:00:29;;;;;;;6.50;1.13;;;;;;;14.87;48.43;100223.41;5058725;28;20041;-82
2023/10/14 15:03:06;;;;;;;6.75;1.33;;;;;;;14.76;48.82;100211.75;5053664;28;20101;-82
2023/10/14 15:11:17;;;;;;;4.30;1.50;;;;;;;14.78;48.48;100236.50;5047241;28;20050;-82
2023/10/14 15:16:37;;;;;;;4.30;1.23;;;;;;;14.68;49.48;100242.44;5037484;28;20045;-84
2023/10/14 15:19:15;;;;;;;5.47;1.40;;;;;;;14.64;49.70;100232.06;5064870;28;20075;-82
2023/10/14 15:24:37;;;;;;;8.80;1.65;;;;;;;14.58;49.88;100235.16;5040089;28;20029;-82
2023/10/14 15:27:21;;;;;;;6.25;1.60;;;;;;;14.65;49.60;100247.97;5049246;28;20049;-82
2023/10/14 15:29:56;;;;;;;4.78;1.13;;;;;;;14.37;50.09;100200.94;5057843;28;20159;-83
2023/10/14 15:32:29;;;;;;;3.72;1.50;;;;;;;14.54;49.70;100241.63;5038547;28;20051;-83
2023/10/14 15:34:59;;;;;;;6.07;1.23;;;;;;;14.66;49.10;100267.47;5039515;28;20077;-82
2023/10/14 15:37:34;;;;;;;4.00;1.33;;;;;;;14.65;49.32;100260.44;5042968;28;20064;-84
2023/10/14 15:40:17;;;;;;;5.57;1.77;;;;;;;14.59;49.04;100251.03;5038088;28;20081;-84
2023/10/14 15:45:37;;;;;;;7.13;1.38;;;;;;;14.64;49.33;100272.03;5060330;28;19909;-83
2023/10/14 15:48:18;;;;;;;6.95;1.58;;;;;;;14.58;49.36;100276.00;5038903;28;20072;-82
2023/10/14 15:50:48;;;;;;;6.65;1.30;;;;;;;14.52;49.27;100272.84;5029986;28;20040;-80
2023/10/14 15:53:16;;;;;;;7.43;2.40;;;;;;;14.48;49.77;100274.84;5036457;28;20042;-81
2023/10/14 15:55:50;;;;;;;4.65;1.20;;;;;;;14.32;50.41;100255.50;5036011;28;20045;-83
2023/10/14 15:58:33;;;;;;;6.82;1.40;;;;;;;14.36;50.55;100279.13;5039202;28;20037;-83
2023/10/14 16:01:09;;;;;;;7.80;1.60;;;;;;;14.29;50.88;100272.50;5026655;28;20049;-83
2023/10/14 16:03:38;;;;;;;8.18;1.70;;;;;;;14.15;51.72;100266.38;5027040;28;20082;-85
2023/10/14 16:06:11;;;;;;;9.82;1.50;;;;;;;14.25;51.58;100289.63;5030017;28;20041;-82
2023/10/14 16:08:40;;;;;;;5.13;1.40;;;;;;;14.23;51.91;100286.22;5025454;28;20049;-84
2023/10/14 16:11:14;;;;;;;4.25;1.40;;;;;;;14.13;52.34;100271.78;5021399;28;20117;-83
2023/10/14 16:13:43;;;;;;;4.95;1.60;;;;;;;14.13;52.83;100278.91;5023354;28;20042;-81
2023/10/14 16:16:11;;;;;;;10.02;2.38;;;;;;;14.03;53.84;100265.31;5017625;28;20285;-82
2023/10/14 16:18:49;;;;;;;6.18;1.60;;;;;;;14.12;54.32;100283.38;5016611;28;20049;-82
2023/10/14 16:21:19;;;;;;;5.55;1.60;;;;;;;14.02;53.76;100288.41;5026459;28;20067;-83
2023/10/14 16:23:48;;;;;;;7.95;1.45;;;;;;;14.11;54.02;100302.13;5021855;28;20145;-83
2023/10/14 16:26:55;;;;;;;5.20;1.30;;;;;;;13.90;54.74;100291.00;5024943;28;20097;-83
2023/10/14 16:32:34;;;;;;;8.77;1.77;;;;;;;13.84;55.06;100316.22;5030927;28;20050;-84
2023/10/14 16:35:10;;;;;;;5.60;2.13;;;;;;;13.81;55.67;100324.38;5020344;28;20587;-82
2023/10/14 16:37:56;;;;;;;7.93;1.95;;;;;;;13.73;55.32;100320.47;4998419;28;20110;-83
2023/10/14 16:40:30;;;;;;;5.75;1.70;;;;;;;13.60;55.34;100307.03;4999784;28;20042;-82
2023/10/14 16:43:03;;;;;;;6.95;1.70;;;;;;;13.55;56.36;100314.44;5003751;28;20114;-82
2023/10/14 16:45:42;;;;;;;6.40;1.40;;;;;;;13.63;56.19;100337.00;5002090;28;20042;-83
2023/10/14 16:48:17;;;;;;;;;;;;;;;13.59;56.95;100334.59;5008224;28;20043;-82
2023/10/14 16:53:31;;;;;;;8.00;1.92;;;;;;;13.45;57.61;100326.59;5011641;28;20054;-79
2023/10/14 16:56:02;;;;;;;8.10;1.85;;;;;;;13.56;57.33;100351.59;5012754;28;20072;-83
2023/10/14 16:58:33;;;;;;;8.43;1.73;;;;;;;13.39;57.58;100338.44;5007808;28;20054;-81